Kirkby, United Kingdom
Current Conditions -  °F | °C
As of 4:20 PM on Friday 19 Dec 2014 (Local Time) from EGGP Reporting Station
Rain Showers Rain Showers  
Wind Chill: 37°   Ceiling: Unl
Heat Index: 45°   Visibility: 5mi
Dew Point: 39°   Wind: 18mph
Humidity: 81%   Direction: 260°W
Pressure: 30"   Gusts: NA
Location:  53.48°N, 2.9°W
Report Text: EGGP 191620Z 26016KT 8000 -SHRA FEW010 SCT026 07/04 Q1016
Loading
Personal Weather Stations






























Interactive Weather Map New forecast layout! Learn more

10-Day Weather Forecast

Advertisements
Track Severe Weather on mobile